Погода Тлапа-де-Комонфортна 2 недели

Герреро, Мексика

03 - 16 марта
  • 03марта
    Сегодня
    +14°
    +35°
    Небольшая облачность
    ВремяПогодаТемператураВлажностьДавлениеВетер, м/сВероятность осадков
    00:00Ясно и безоблачно+21°C60 %665 мм1.6 м/с2 %
    03:00Ясно и безоблачно+19°C68 %664 мм1.1 м/с2 %
    06:00Ясно и безоблачно+16°C70 %663 мм1.2 м/с2 %
    09:00Ясно и безоблачно+21°C42 %665 мм0.4 м/с2 %
    12:00Небольшая облачность+30°C23 %666 мм0.5 м/с2 %
    15:00Небольшая облачность+34°C21 %664 мм2.3 м/с2 %
    18:00Небольшая облачность+29°C35 %663 мм4.8 м/с2 %
    21:00Ясно и безоблачно+23°C52 %664 мм2.7 м/с2 %
  • 04марта
    Понедельник
    +14°
    +35°
    Облачно с прояснениями
    ВремяПогодаТемператураВлажностьДавлениеВетер, м/сВероятность осадков
    00:00Ясно и безоблачно+21°C53 %664 мм1.7 м/с2 %
    03:00Практически безоблачно+19°C55 %662 мм1.2 м/с2 %
    06:00Облачно с прояснениями+16°C59 %662 мм1.0 м/с2 %
    09:00Облачно с прояснениями+21°C35 %664 мм0.2 м/с2 %
    12:00Облачно с прояснениями+30°C22 %665 мм0.8 м/с2 %
    15:00Облачно с прояснениями+34°C21 %663 мм3.8 м/с2 %
    18:00Облачно с прояснениями+29°C35 %662 мм4.9 м/с2 %
    21:00Небольшая облачность+23°C54 %663 мм2.4 м/с2 %
  • 05марта
    Вторник
    +15°
    +36°
    Ясно и безоблачно
    ВремяПогодаТемператураВлажностьДавлениеВетер, м/сВероятность осадков
    00:00Ясно и безоблачно+21°C60 %663 мм1.3 м/с2 %
    03:00Ясно и безоблачно+19°C63 %662 мм1.1 м/с2 %
    06:00Ясно и безоблачно+16°C64 %661 мм0.8 м/с2 %
    09:00Ясно и безоблачно+21°C36 %664 мм0.3 м/с2 %
    12:00Ясно и безоблачно+30°C20 %664 мм0.7 м/с2 %
    15:00Ясно и безоблачно+35°C17 %662 мм1.8 м/с2 %
    18:00Ясно и безоблачно+29°C39 %662 мм4.7 м/с2 %
    21:00Практически безоблачно+24°C59 %662 мм2.2 м/с2 %
  • 06марта
    Среда
    +16°
    +36°
    Ясно и безоблачно
    ВремяПогодаТемператураВлажностьДавлениеВетер, м/сВероятность осадков
    00:00Ясно и безоблачно+20°C67 %662 мм1.3 м/с2 %
    03:00Ясно и безоблачно+19°C68 %661 мм1.3 м/с2 %
    06:00Ясно и безоблачно+16°C60 %661 мм0.6 м/с2 %
    09:00Ясно и безоблачно+22°C32 %663 мм0.2 м/с2 %
    12:00Ясно и безоблачно+31°C20 %664 мм1.4 м/с2 %
    15:00Ясно и безоблачно+35°C20 %662 мм2.1 м/с2 %
    18:00Ясно и безоблачно+30°C41 %662 мм5.0 м/с2 %
    21:00Ясно и безоблачно+24°C58 %663 мм1.6 м/с2 %
  • 07марта
    Четверг
    +15°
    +36°
    Ясно и безоблачно
    ВремяПогодаТемператураВлажностьДавлениеВетер, м/сВероятность осадков
    00:00Ясно и безоблачно+22°C62 %663 мм1.3 м/с2 %
    03:00Ясно и безоблачно+20°C66 %661 мм1.0 м/с2 %
    06:00Ясно и безоблачно+17°C65 %661 мм0.7 м/с2 %
    09:00Ясно и безоблачно+22°C41 %664 мм0.6 м/с2 %
    12:00Ясно и безоблачно+32°C20 %664 мм0.7 м/с2 %
    15:00Ясно и безоблачно+34°C21 %663 мм5.5 м/с2 %
    18:00Ясно и безоблачно+30°C34 %663 мм5.2 м/с2 %
    21:00Ясно и безоблачно+24°C55 %663 мм1.6 м/с2 %
Мы используем cookies
Соглашаюсь